Kermit, TX

1:46 PM CST on December 03, 2016 (GMT -0600)
Winkler County | | Change Station

Elev 2822 ft 31.78 °N, 103.20 °W | Updated 26 minutes ago

Overcast
Overcast
44 °F
Feels Like 39 °F
N
9
Wind Variable Wind from ENE

Today
High -- | Low -- °F
--% Chance of Precip.
Yesterday
High -- | Low -- °F
Precip. -- in
Pressure 29.99 in
Visibility 10.0 miles
Clouds Overcast 900 ft
Windchill 39 °F
Dew Point 42 °F
Humidity 93%
Rainfall 0.30 in
Snow Depth Not available.
7:36 AM 5:47 PM
Waxing Crescent, 16% visible
SPECI KINK 031920Z AUTO 06008KT 10SM OVC009 07/06 A2999 RMK AO2 T00670056 TSNO
Pressure 29.99 in
Visibility 10.0 miles
Clouds Overcast 900 ft
Windchill 39 °F
Dew Point 42 °F
Humidity 93%
Rainfall 0.30 in
Snow Depth Not available.
7:36 AM 5:47 PM
Waxing Crescent, 16% visible
SPECI KINK 031920Z AUTO 06008KT 10SM OVC009 07/06 A2999 RMK AO2 T00670056 TSNO

10-Day Weather Forecast

Almanac

Astronomy

Dec. 03, 2016 Rise Set
Actual Time
Civil Twilight
Nautical Twilight
Astronomical Twilight
Moon
Length of Visible Light
Length of Day
Tomorrow will be .
, % of the Moon is Illuminated

Today's Extremes

State Highs State Lows

Community

WunderPhotos

Upload Photos

1,955,481 photos uploaded!

WunderBlog® & News

Nearby

Air Quality

  Air Quality AQ Index Pollutant
Not available.

Snow Depth

Station Depth Elevation

Earthquake Activity

City Distance Mag. Time & Date
Minimum magnitude displayed is 2.5.

Coastal Water Temperatures

Place Temperature

Stations

Nearby Weather Stations

Station Location Temp. Windchill Dew Point Humidity Wind Precip. Elev Updated Type
                   

Watches & Warnings

There are currently no watches in effect.